Time,TemperatureF,DewpointF,PressureIn,WindDirection,WindDirectionDegrees,WindSpeedMPH,WindSpeedGustMPH,Humidity,HourlyPrecipIn,Conditions,Clouds,dailyrainin,SolarRadiationWatts/m^2,SoftwareType,DateUTC
2013-02-25 00:11:00,22.0,16.0,-100.00,WNW,285,0.0,3.0,79,0.00,,,0.13,0.000000,,2013-02-25 07:11:00,
2013-02-25 00:21:00,22.0,16.0,-100.00,WNW,285,0.0,3.0,79,0.00,,,0.13,0.000000,,2013-02-25 07:21:00,
2013-02-25 00:31:00,22.0,16.0,-100.00,WNW,285,0.0,3.0,79,0.00,,,0.13,0.000000,,2013-02-25 07:31:00,
2013-02-25 00:41:00,22.0,16.0,-100.00,WNW,285,0.0,3.0,79,0.00,,,0.13,0.000000,,2013-02-25 07:41:00,
2013-02-25 00:51:00,22.0,16.0,-100.00,WNW,285,0.0,3.0,79,0.00,,,0.13,0.000000,,2013-02-25 07:51:00,
2013-02-25 01:21:00,21.0,16.0,-100.00,ENE,77,3.0,4.0,82,0.00,,,0.13,0.000000,,2013-02-25 08:21:00,
2013-02-25 01:31:00,21.0,16.0,-100.00,ENE,77,3.0,4.0,82,0.00,,,0.13,0.000000,,2013-02-25 08:31:00,
2013-02-25 01:41:00,21.0,16.0,-100.00,ENE,77,3.0,4.0,82,0.00,,,0.13,0.000000,,2013-02-25 08:41:00,
2013-02-25 01:52:00,21.0,16.0,-100.00,ENE,77,3.0,4.0,82,0.00,,,0.13,0.000000,,2013-02-25 08:52:00,
2013-02-25 02:21:00,19.0,14.0,-100.00,East,89,3.0,6.0,79,0.00,,,0.13,0.000000,,2013-02-25 09:21:00,
2013-02-25 02:31:00,19.0,14.0,-100.00,East,89,3.0,6.0,79,0.00,,,0.13,0.000000,,2013-02-25 09:31:00,
2013-02-25 02:41:00,19.0,14.0,-100.00,East,89,3.0,6.0,79,0.00,,,0.13,0.000000,,2013-02-25 09:41:00,
2013-02-25 02:51:00,19.0,14.0,-100.00,East,89,3.0,6.0,79,0.00,,,0.13,0.000000,,2013-02-25 09:51:00,
2013-02-25 03:21:00,18.0,15.0,-100.00,ESE,104,5.0,7.0,86,0.00,,,0.13,0.000000,,2013-02-25 10:21:00,
2013-02-25 03:31:00,18.0,15.0,-100.00,ESE,104,5.0,7.0,86,0.00,,,0.13,0.000000,,2013-02-25 10:31:00,
2013-02-25 03:41:00,18.0,15.0,-100.00,ESE,104,5.0,7.0,86,0.00,,,0.13,0.000000,,2013-02-25 10:41:00,
2013-02-25 03:52:00,18.0,15.0,-100.00,ESE,104,5.0,7.0,86,0.00,,,0.13,0.000000,,2013-02-25 10:52:00,
2013-02-25 04:21:00,14.0,9.0,-100.00,East,84,5.0,8.0,81,0.00,,,0.13,0.000000,,2013-02-25 11:21:00,
2013-02-25 04:32:00,14.0,9.0,-100.00,East,84,5.0,8.0,81,0.00,,,0.13,0.000000,,2013-02-25 11:32:00,
2013-02-25 04:42:00,14.0,9.0,-100.00,East,84,5.0,8.0,81,0.00,,,0.13,0.000000,,2013-02-25 11:42:00,
2013-02-25 04:52:00,14.0,9.0,-100.00,East,84,5.0,8.0,81,0.00,,,0.13,0.000000,,2013-02-25 11:52:00,
2013-02-25 05:21:00,14.0,11.0,-100.00,SE,136,2.0,11.0,86,0.00,,,0.13,0.000000,,2013-02-25 12:21:00,
2013-02-25 05:32:00,14.0,11.0,-100.00,SE,136,2.0,11.0,86,0.00,,,0.13,0.000000,,2013-02-25 12:32:00,
2013-02-25 05:42:00,14.0,11.0,-100.00,SE,136,2.0,11.0,86,0.00,,,0.13,0.000000,,2013-02-25 12:42:00,
2013-02-25 05:53:00,14.0,11.0,-100.00,SE,136,2.0,11.0,86,0.00,,,0.13,0.000000,,2013-02-25 12:53:00,
2013-02-25 06:22:00,12.0,9.0,-100.00,East,97,4.0,7.0,86,0.00,,,0.13,0.000000,,2013-02-25 13:22:00,
2013-02-25 07:22:00,12.0,7.0,-100.00,East,94,5.0,7.0,79,-99.99,,,0.13,0.000000,,2013-02-25 14:22:00,
2013-02-25 07:31:00,12.0,7.0,-100.00,East,94,5.0,7.0,79,-99.99,,,0.13,0.000000,,2013-02-25 14:31:00,
2013-02-25 07:41:00,12.0,7.0,-100.00,East,94,5.0,7.0,79,-99.99,,,0.13,0.000000,,2013-02-25 14:41:00,
2013-02-25 07:52:00,12.0,7.0,-100.00,East,94,5.0,7.0,79,-99.99,,,0.13,0.000000,,2013-02-25 14:52:00,
2013-02-25 08:21:00,15.0,7.0,-100.00,East,86,5.0,9.0,69,0.00,,,0.13,1.000000,,2013-02-25 15:21:00,
2013-02-25 08:32:00,15.0,7.0,-100.00,East,86,5.0,9.0,69,0.00,,,0.13,1.000000,,2013-02-25 15:32:00,
2013-02-25 08:41:00,15.0,7.0,-100.00,East,86,5.0,9.0,69,0.00,,,0.13,1.000000,,2013-02-25 15:41:00,
2013-02-25 08:51:00,15.0,7.0,-100.00,East,86,5.0,9.0,69,0.00,,,0.13,1.000000,,2013-02-25 15:51:00,
2013-02-25 09:21:00,20.0,8.0,-100.00,ENE,72,3.0,11.0,58,0.00,,,0.13,101.000000,,2013-02-25 16:21:00,
2013-02-25 09:31:00,20.0,8.0,-100.00,ENE,72,3.0,11.0,58,0.00,,,0.13,101.000000,,2013-02-25 16:31:00,
2013-02-25 09:41:00,20.0,8.0,-100.00,ENE,72,3.0,11.0,58,0.00,,,0.13,101.000000,,2013-02-25 16:41:00,
2013-02-25 09:51:00,20.0,8.0,-100.00,ENE,72,3.0,11.0,58,0.00,,,0.13,101.000000,,2013-02-25 16:51:00,
2013-02-25 10:21:00,26.0,13.0,-100.00,NW,319,4.0,13.0,58,0.00,,,0.13,332.000000,,2013-02-25 17:21:00,
2013-02-25 10:31:00,26.0,13.0,-100.00,NW,319,4.0,13.0,58,0.00,,,0.13,332.000000,,2013-02-25 17:31:00,
2013-02-25 10:41:00,26.0,13.0,-100.00,NW,319,4.0,13.0,58,0.00,,,0.13,332.000000,,2013-02-25 17:41:00,
2013-02-25 10:52:00,26.0,13.0,-100.00,NW,319,4.0,13.0,58,0.00,,,0.13,332.000000,,2013-02-25 17:52:00,
2013-02-25 11:21:00,28.0,11.0,-100.00,NW,312,5.0,6.0,48,0.00,,,0.08,538.000000,,2013-02-25 18:21:00,
2013-02-25 11:32:00,28.0,11.0,-100.00,NW,312,5.0,6.0,48,0.00,,,0.08,538.000000,,2013-02-25 18:32:00,
2013-02-25 11:41:00,28.0,11.0,-100.00,NW,312,5.0,6.0,48,0.00,,,0.08,538.000000,,2013-02-25 18:41:00,
2013-02-25 11:51:00,28.0,11.0,-100.00,NW,312,5.0,6.0,48,0.00,,,0.08,538.000000,,2013-02-25 18:51:00,
2013-02-25 12:21:00,32.0,7.0,-100.00,NW,311,3.0,10.0,35,0.00,,,0.01,761.000000,,2013-02-25 19:21:00,
2013-02-25 12:31:00,32.0,7.0,-100.00,NW,311,3.0,10.0,35,0.00,,,0.01,761.000000,,2013-02-25 19:31:00,
2013-02-25 12:41:00,32.0,7.0,-100.00,NW,311,3.0,10.0,35,0.00,,,0.01,761.000000,,2013-02-25 19:41:00,
2013-02-25 12:52:00,32.0,7.0,-100.00,NW,311,3.0,10.0,35,0.00,,,0.01,761.000000,,2013-02-25 19:52:00,
2013-02-25 13:21:00,37.0,12.0,-100.00,NW,309,3.0,8.0,35,0.00,,,0.00,886.000000,,2013-02-25 20:21:00,
2013-02-25 13:31:00,37.0,12.0,-100.00,NW,309,3.0,8.0,35,0.00,,,0.00,886.000000,,2013-02-25 20:31:00,
2013-02-25 13:41:00,37.0,12.0,-100.00,NW,309,3.0,8.0,35,0.00,,,0.00,886.000000,,2013-02-25 20:41:00,
2013-02-25 13:52:00,37.0,12.0,-100.00,NW,309,3.0,8.0,35,0.00,,,0.00,886.000000,,2013-02-25 20:52:00,
2013-02-25 14:21:00,39.0,12.0,-100.00,NNW,342,4.0,8.0,33,0.00,,,0.00,926.000000,,2013-02-25 21:21:00,
2013-02-25 14:31:00,39.0,12.0,-100.00,NNW,342,4.0,8.0,33,0.00,,,0.00,926.000000,,2013-02-25 21:31:00,
2013-02-25 14:42:00,39.0,12.0,-100.00,NNW,342,4.0,8.0,33,0.00,,,0.00,926.000000,,2013-02-25 21:42:00,
2013-02-25 14:51:00,39.0,12.0,-100.00,NNW,342,4.0,8.0,33,0.00,,,0.00,926.000000,,2013-02-25 21:51:00,
2013-02-25 15:21:00,39.0,9.0,-100.00,NNW,343,2.0,7.0,29,0.00,,,0.00,890.000000,,2013-02-25 22:21:00,
2013-02-25 15:31:00,39.0,9.0,-100.00,NNW,343,2.0,7.0,29,0.00,,,0.00,890.000000,,2013-02-25 22:31:00,
2013-02-25 15:41:00,39.0,9.0,-100.00,NNW,343,2.0,7.0,29,0.00,,,0.00,890.000000,,2013-02-25 22:41:00,
2013-02-25 15:51:00,39.0,9.0,-100.00,NNW,343,2.0,7.0,29,0.00,,,0.00,890.000000,,2013-02-25 22:51:00,
2013-02-25 16:22:00,41.0,8.0,-100.00,North,354,2.0,7.0,25,0.00,,,0.00,778.000000,,2013-02-25 23:22:00,
2013-02-25 16:31:00,41.0,8.0,-100.00,North,354,2.0,7.0,25,0.00,,,0.00,778.000000,,2013-02-25 23:31:00,
2013-02-25 16:41:00,41.0,8.0,-100.00,North,354,2.0,7.0,25,0.00,,,0.00,778.000000,,2013-02-25 23:41:00,
2013-02-25 16:52:00,41.0,8.0,-100.00,North,354,2.0,7.0,25,0.00,,,0.00,778.000000,,2013-02-25 23:52:00,
2013-02-25 17:21:00,42.0,8.0,-100.00,NW,322,2.0,5.0,24,0.00,,,0.00,600.000000,,2013-02-26 00:21:00,
2013-02-25 17:32:00,42.0,8.0,-100.00,NW,322,2.0,5.0,24,0.00,,,0.00,600.000000,,2013-02-26 00:32:00,
2013-02-25 17:41:00,42.0,8.0,-100.00,NW,322,2.0,5.0,24,0.00,,,0.00,600.000000,,2013-02-26 00:41:00,
2013-02-25 17:51:00,42.0,8.0,-100.00,NW,322,2.0,5.0,24,0.00,,,0.00,600.000000,,2013-02-26 00:51:00,
2013-02-25 18:21:00,42.0,13.0,-100.00,NE,49,3.0,6.0,30,0.00,,,0.00,371.000000,,2013-02-26 01:21:00,
2013-02-25 18:31:00,42.0,13.0,-100.00,NE,49,3.0,6.0,30,0.00,,,0.00,371.000000,,2013-02-26 01:31:00,
2013-02-25 18:41:00,42.0,13.0,-100.00,NE,49,3.0,6.0,30,0.00,,,0.00,371.000000,,2013-02-26 01:41:00,
2013-02-25 18:51:00,42.0,13.0,-100.00,NE,49,3.0,6.0,30,0.00,,,0.00,371.000000,,2013-02-26 01:51:00,
2013-02-25 19:21:00,36.0,12.0,-100.00,SE,141,0.0,4.0,37,0.00,,,0.00,107.000000,,2013-02-26 02:21:00,
2013-02-25 19:32:00,36.0,12.0,-100.00,SE,141,0.0,4.0,37,0.00,,,0.00,107.000000,,2013-02-26 02:32:00,
2013-02-25 19:41:00,36.0,12.0,-100.00,SE,141,0.0,4.0,37,0.00,,,0.00,107.000000,,2013-02-26 02:41:00,
2013-02-25 19:52:00,36.0,12.0,-100.00,SE,141,0.0,4.0,37,0.00,,,0.00,107.000000,,2013-02-26 02:52:00,
2013-02-25 20:21:00,33.0,18.0,-100.00,East,90,5.0,5.0,54,0.00,,,0.00,0.000000,,2013-02-26 03:21:00,
2013-02-25 20:31:00,33.0,18.0,-100.00,East,90,5.0,5.0,54,0.00,,,0.00,0.000000,,2013-02-26 03:31:00,
2013-02-25 20:41:00,33.0,18.0,-100.00,East,90,5.0,5.0,54,0.00,,,0.00,0.000000,,2013-02-26 03:41:00,
2013-02-25 20:52:00,33.0,18.0,-100.00,East,90,5.0,5.0,54,0.00,,,0.00,0.000000,,2013-02-26 03:52:00,
2013-02-25 21:21:00,30.0,17.0,-100.00,ENE,69,6.0,9.0,59,0.00,,,0.00,0.000000,,2013-02-26 04:21:00,
2013-02-25 21:32:00,30.0,17.0,-100.00,ENE,69,6.0,9.0,59,0.00,,,0.00,0.000000,,2013-02-26 04:32:00,
2013-02-25 21:42:00,30.0,17.0,-100.00,ENE,69,6.0,9.0,59,0.00,,,0.00,0.000000,,2013-02-26 04:42:00,
2013-02-25 21:51:00,30.0,17.0,-100.00,ENE,69,6.0,9.0,59,0.00,,,0.00,0.000000,,2013-02-26 04:51:00,
2013-02-25 22:21:00,29.0,20.0,-100.00,SE,135,3.0,13.0,68,0.00,,,0.00,0.000000,,2013-02-26 05:21:00,
2013-02-25 22:31:00,29.0,20.0,-100.00,SE,135,3.0,13.0,68,0.00,,,0.00,0.000000,,2013-02-26 05:31:00,
2013-02-25 22:42:00,29.0,20.0,-100.00,SE,135,3.0,13.0,68,0.00,,,0.00,0.000000,,2013-02-26 05:42:00,
2013-02-25 22:52:00,29.0,20.0,-100.00,SE,135,3.0,13.0,68,0.00,,,0.00,0.000000,,2013-02-26 05:52:00,
2013-02-25 23:21:00,28.0,19.0,-100.00,East,101,4.0,9.0,69,0.00,,,0.00,0.000000,,2013-02-26 06:21:00,
2013-02-25 23:31:00,28.0,19.0,-100.00,East,101,4.0,9.0,69,0.00,,,0.00,0.000000,,2013-02-26 06:31:00,
2013-02-25 23:41:00,28.0,19.0,-100.00,East,101,4.0,9.0,69,0.00,,,0.00,0.000000,,2013-02-26 06:41:00,
2013-02-25 23:51:00,28.0,19.0,-100.00,East,101,4.0,9.0,69,0.00,,,0.00,0.000000,,2013-02-26 06:51:00,